createdAt,value
2019-01-03T00:00:03.299Z,1023.6
2019-01-03T00:01:06.212Z,1023.6
2019-01-03T00:02:08.911Z,1023.7
2019-01-03T00:03:11.315Z,1023.6
2019-01-03T00:04:13.457Z,1023.6
2019-01-03T00:05:15.575Z,1023.6
2019-01-03T00:06:17.732Z,1023.6
2019-01-03T00:07:19.879Z,1023.5
2019-01-03T00:08:21.985Z,1023.6
2019-01-03T00:09:24.139Z,1023.6
2019-01-03T00:10:26.375Z,1023.6
2019-01-03T00:11:28.918Z,1023.5
2019-01-03T00:12:31.071Z,1023.6
2019-01-03T00:13:33.189Z,1023.5
2019-01-03T00:14:35.315Z,1023.5
2019-01-03T00:15:37.441Z,1023.5
2019-01-03T00:16:39.600Z,1023.5
2019-01-03T00:17:42.008Z,1023.5
2019-01-03T00:18:44.172Z,1023.5
2019-01-03T00:19:46.314Z,1023.5
2019-01-03T00:20:48.485Z,1023.5
2019-01-03T00:21:50.946Z,1023.5
2019-01-03T00:22:53.071Z,1023.5
2019-01-03T00:23:55.248Z,1023.5
2019-01-03T00:24:57.366Z,1023.5
2019-01-03T00:25:59.495Z,1023.5
2019-01-03T00:27:01.617Z,1023.4
2019-01-03T00:28:03.827Z,1023.5
2019-01-03T00:29:06.215Z,1023.4
2019-01-03T00:30:08.376Z,1023.5
2019-01-03T00:31:10.498Z,1023.5
2019-01-03T00:32:12.609Z,1023.5
2019-01-03T00:33:15.008Z,1023.4
2019-01-03T00:34:17.126Z,1023.4
2019-01-03T00:35:19.282Z,1023.4
2019-01-03T00:36:21.420Z,1023.4
2019-01-03T00:37:23.540Z,1023.4
2019-01-03T00:38:25.685Z,1023.4
2019-01-03T00:39:27.812Z,1023.4
2019-01-03T00:40:30.335Z,1023.3
2019-01-03T00:41:32.442Z,1023.4
2019-01-03T00:42:34.564Z,1023.4
2019-01-03T00:43:36.682Z,1023.4
2019-01-03T00:44:38.800Z,1023.4
2019-01-03T00:45:41.209Z,1023.4
2019-01-03T00:46:43.349Z,1023.3
2019-01-03T00:47:45.490Z,1023.3
2019-01-03T00:48:47.628Z,1023.4
2019-01-03T00:49:49.779Z,1023.3
2019-01-03T00:50:51.899Z,1023.3
2019-01-03T00:51:54.323Z,1023.3
2019-01-03T00:52:56.750Z,1023.3
2019-01-03T00:53:59.143Z,1023.3
2019-01-03T00:55:01.270Z,1023.4
2019-01-03T00:56:03.719Z,1023.4
2019-01-03T00:57:05.857Z,1023.4
2019-01-03T00:58:07.976Z,1023.4
2019-01-03T00:59:10.112Z,1023.4
2019-01-03T01:00:12.235Z,1023.6
2019-01-03T01:01:14.347Z,1023.5
2019-01-03T01:02:16.479Z,1023.6
2019-01-03T01:03:18.627Z,1023.6
2019-01-03T01:04:20.737Z,1023.6
2019-01-03T01:05:22.847Z,1023.6
2019-01-03T01:06:25.246Z,1023.6
2019-01-03T01:07:27.375Z,1023.7
2019-01-03T01:08:29.525Z,1023.6
2019-01-03T01:09:31.649Z,1023.6
2019-01-03T01:10:34.152Z,1023.6
2019-01-03T01:11:36.279Z,1023.6
2019-01-03T01:12:38.400Z,1023.6
2019-01-03T01:13:40.529Z,1023.6
2019-01-03T01:14:42.666Z,1023.7
2019-01-03T01:15:44.801Z,1023.6
2019-01-03T01:16:47.329Z,1023.7
2019-01-03T01:17:49.507Z,1023.7
2019-01-03T01:18:51.629Z,1023.7
2019-01-03T01:19:53.761Z,1023.7
2019-01-03T01:20:55.894Z,1023.7
2019-01-03T01:21:58.388Z,1023.7
2019-01-03T01:23:00.502Z,1023.7
2019-01-03T01:24:02.939Z,1023.7
2019-01-03T01:25:05.074Z,1023.7
2019-01-03T01:26:07.221Z,1023.7
2019-01-03T01:27:09.332Z,1023.7
2019-01-03T01:28:11.750Z,1023.7
2019-01-03T01:29:13.889Z,1023.7
2019-01-03T01:30:16.296Z,1023.7
2019-01-03T01:31:18.409Z,1023.7
2019-01-03T01:32:20.830Z,1023.7
2019-01-03T01:33:22.925Z,1023.7
2019-01-03T01:34:25.039Z,1023.7
2019-01-03T01:35:27.174Z,1023.7
2019-01-03T01:36:29.315Z,1023.7
2019-01-03T01:37:31.448Z,1023.7
2019-01-03T01:38:33.586Z,1023.7
2019-01-03T01:39:35.733Z,1023.7
2019-01-03T01:40:37.868Z,1023.7
2019-01-03T01:41:39.996Z,1023.7
2019-01-03T01:42:42.126Z,1023.8
2019-01-03T01:43:44.257Z,1023.8
2019-01-03T01:44:46.763Z,1023.8
2019-01-03T01:45:48.876Z,1023.8
2019-01-03T01:46:50.993Z,1023.7
2019-01-03T01:47:53.164Z,1023.7
2019-01-03T01:48:55.699Z,1023.8
2019-01-03T01:49:57.823Z,1023.7
2019-01-03T01:50:59.973Z,1023.7
2019-01-03T01:52:02.117Z,1023.7
2019-01-03T01:53:04.617Z,1023.7
2019-01-03T01:54:06.755Z,1023.6
2019-01-03T01:55:08.850Z,1023.6
2019-01-03T01:56:11.004Z,1023.7
2019-01-03T01:57:13.174Z,1023.7
2019-01-03T01:58:15.308Z,1023.7
2019-01-03T01:59:17.429Z,1023.7
2019-01-03T02:00:19.547Z,1023.7
2019-01-03T02:01:21.996Z,1023.8
2019-01-03T02:02:24.430Z,1023.8
2019-01-03T02:03:26.557Z,1023.7
2019-01-03T02:04:28.678Z,1023.8
2019-01-03T02:05:30.819Z,1023.7
2019-01-03T02:06:32.982Z,1023.8
2019-01-03T02:07:35.116Z,1023.8
2019-01-03T02:08:37.232Z,1023.8
2019-01-03T02:09:39.355Z,1023.8
2019-01-03T02:10:41.477Z,1023.8
2019-01-03T02:11:43.615Z,1023.8
2019-01-03T02:12:45.753Z,1023.8
2019-01-03T02:13:47.889Z,1023.8
2019-01-03T02:14:50.006Z,1023.8
2019-01-03T02:15:52.166Z,1023.8
2019-01-03T02:16:54.298Z,1023.9
2019-01-03T02:17:56.409Z,1023.9
2019-01-03T02:18:58.530Z,1023.9
2019-01-03T02:20:00.668Z,1023.9
2019-01-03T02:21:03.364Z,1023.9
2019-01-03T02:22:05.507Z,1023.8
2019-01-03T02:23:07.642Z,1023.8
2019-01-03T02:24:09.782Z,1023.9
2019-01-03T02:25:11.906Z,1023.8
2019-01-03T02:26:14.028Z,1023.8
2019-01-03T02:27:16.151Z,1023.9
2019-01-03T02:28:18.314Z,1023.8
2019-01-03T02:29:20.436Z,1023.8
2019-01-03T02:30:22.567Z,1023.8
2019-01-03T02:31:25.032Z,1023.8
2019-01-03T02:32:27.150Z,1023.7
2019-01-03T02:33:29.547Z,1023.7
2019-01-03T02:34:31.659Z,1023.7
2019-01-03T02:35:33.792Z,1023.7
2019-01-03T02:36:35.918Z,1023.7
2019-01-03T02:37:38.381Z,1023.7
2019-01-03T02:38:40.829Z,1023.7
2019-01-03T02:39:42.952Z,1023.8
2019-01-03T02:40:45.080Z,1023.8
2019-01-03T02:41:47.214Z,1023.8
2019-01-03T02:42:49.680Z,1023.8
2019-01-03T02:43:51.809Z,1023.8
2019-01-03T02:44:53.942Z,1023.8
2019-01-03T02:45:56.379Z,1023.8
2019-01-03T02:46:58.534Z,1023.8
2019-01-03T02:48:00.678Z,1023.8
2019-01-03T02:49:03.108Z,1023.8
2019-01-03T02:50:05.631Z,1023.8
2019-01-03T02:51:08.054Z,1023.7
2019-01-03T02:52:10.205Z,1023.8
2019-01-03T02:53:12.321Z,1023.7
2019-01-03T02:54:14.435Z,1023.7
2019-01-03T02:55:16.957Z,1023.8
2019-01-03T02:56:19.076Z,1023.8
2019-01-03T02:57:21.222Z,1023.8
2019-01-03T02:58:24.013Z,1023.9
2019-01-03T02:59:26.173Z,1023.8
2019-01-03T03:00:28.341Z,1023.8
2019-01-03T03:01:30.501Z,1023.8
2019-01-03T03:02:33.338Z,1023.8
2019-01-03T03:03:35.463Z,1023.8
2019-01-03T03:04:37.591Z,1023.8
2019-01-03T03:05:39.711Z,1023.8
2019-01-03T03:06:41.835Z,1023.8
2019-01-03T03:07:44.254Z,1023.9
2019-01-03T03:08:46.795Z,1023.9
2019-01-03T03:09:48.916Z,1023.8
2019-01-03T03:10:51.037Z,1023.8
2019-01-03T03:11:53.425Z,1023.8
2019-01-03T03:12:55.575Z,1023.7
2019-01-03T03:13:58.004Z,1023.7
2019-01-03T03:15:00.169Z,1023.7
2019-01-03T03:16:02.352Z,1023.7
2019-01-03T03:17:04.485Z,1023.7
2019-01-03T03:18:06.627Z,1023.6
2019-01-03T03:19:08.780Z,1023.6
2019-01-03T03:20:10.909Z,1023.6
2019-01-03T03:21:13.049Z,1023.6
2019-01-03T03:22:15.176Z,1023.5
2019-01-03T03:23:17.319Z,1023.5
2019-01-03T03:24:19.447Z,1023.5
2019-01-03T03:25:21.893Z,1023.5
2019-01-03T03:26:24.042Z,1023.5
2019-01-03T03:27:26.175Z,1023.5
2019-01-03T03:28:28.318Z,1023.5
2019-01-03T03:29:30.435Z,1023.5
2019-01-03T03:30:32.572Z,1023.5
2019-01-03T03:31:34.745Z,1023.5
2019-01-03T03:32:37.717Z,1023.5
2019-01-03T03:33:40.588Z,1023.5
2019-01-03T03:34:42.715Z,1023.6
2019-01-03T03:35:45.634Z,1023.5
2019-01-03T03:36:48.059Z,1023.5
2019-01-03T03:37:50.178Z,1023.5
2019-01-03T03:38:52.327Z,1023.6
2019-01-03T03:39:54.450Z,1023.5
2019-01-03T03:40:56.561Z,1023.5
2019-01-03T03:41:58.977Z,1023.5
2019-01-03T03:43:01.108Z,1023.5
2019-01-03T03:44:03.863Z,1023.5
2019-01-03T03:45:06.009Z,1023.5
2019-01-03T03:46:08.175Z,1023.5
2019-01-03T03:47:10.703Z,1023.5
2019-01-03T03:48:12.853Z,1023.4
2019-01-03T03:49:15.399Z,1023.4
2019-01-03T03:50:17.825Z,1023.5
2019-01-03T03:51:19.960Z,1023.5
2019-01-03T03:52:22.085Z,1023.5
2019-01-03T03:53:24.200Z,1023.5
2019-01-03T03:54:26.335Z,1023.5
2019-01-03T03:55:28.762Z,1023.5
2019-01-03T03:56:30.925Z,1023.5
2019-01-03T03:57:33.048Z,1023.4
2019-01-03T03:58:35.176Z,1023.5
2019-01-03T03:59:37.326Z,1023.4
2019-01-03T04:00:39.472Z,1023.5
2019-01-03T04:01:41.624Z,1023.4
2019-01-03T04:02:43.769Z,1023.4
2019-01-03T04:03:45.904Z,1023.5
2019-01-03T04:04:48.023Z,1023.4
2019-01-03T04:05:50.173Z,1023.4
2019-01-03T04:06:52.292Z,1023.4
2019-01-03T04:07:54.685Z,1023.5
2019-01-03T04:08:57.108Z,1023.4
2019-01-03T04:09:59.248Z,1023.5
2019-01-03T04:11:01.457Z,1023.5
2019-01-03T04:12:03.998Z,1023.5
2019-01-03T04:13:06.159Z,1023.5
2019-01-03T04:14:08.589Z,1023.5
2019-01-03T04:15:10.720Z,1023.5
2019-01-03T04:16:12.841Z,1023.5
2019-01-03T04:17:15.029Z,1023.4
2019-01-03T04:18:17.555Z,1023.4
2019-01-03T04:19:19.952Z,1023.5
2019-01-03T04:20:22.347Z,1023.4
2019-01-03T04:21:24.472Z,1023.4
2019-01-03T04:22:26.605Z,1023.3
2019-01-03T04:23:29.145Z,1023.4
2019-01-03T04:24:31.274Z,1023.3
2019-01-03T04:25:33.390Z,1023.3
2019-01-03T04:26:35.521Z,1023.3
2019-01-03T04:27:37.958Z,1023.3
2019-01-03T04:28:40.077Z,1023.3
2019-01-03T04:29:42.771Z,1023.3
2019-01-03T04:30:45.180Z,1023.4
2019-01-03T04:31:47.712Z,1023.3
2019-01-03T04:32:49.844Z,1023.3
2019-01-03T04:33:52.275Z,1023.3
2019-01-03T04:34:54.420Z,1023.3
2019-01-03T04:35:56.555Z,1023.3
2019-01-03T04:36:59.341Z,1023.4
2019-01-03T04:38:01.482Z,1023.4
2019-01-03T04:39:03.638Z,1023.4
2019-01-03T04:40:06.158Z,1023.3
2019-01-03T04:41:08.311Z,1023.3
2019-01-03T04:42:10.483Z,1023.3
2019-01-03T04:43:12.633Z,1023.3
2019-01-03T04:44:14.767Z,1023.3
2019-01-03T04:45:17.473Z,1023.4
2019-01-03T04:46:19.589Z,1023.4
2019-01-03T04:47:21.755Z,1023.4
2019-01-03T04:48:23.901Z,1023.4
2019-01-03T04:49:26.055Z,1023.4
2019-01-03T04:50:28.208Z,1023.4
2019-01-03T04:51:30.348Z,1023.5
2019-01-03T04:52:32.509Z,1023.4
2019-01-03T04:53:34.631Z,1023.4
2019-01-03T04:54:37.755Z,1023.4
2019-01-03T04:55:40.270Z,1023.4
2019-01-03T04:56:42.420Z,1023.4
2019-01-03T04:57:44.539Z,1023.4
2019-01-03T04:58:46.662Z,1023.4
2019-01-03T04:59:49.090Z,1023.4
2019-01-03T05:00:51.284Z,1023.4
2019-01-03T05:01:53.813Z,1023.4
2019-01-03T05:02:55.945Z,1023.4
2019-01-03T05:03:58.089Z,1023.5
2019-01-03T05:05:00.228Z,1023.5
2019-01-03T05:06:02.671Z,1023.5
2019-01-03T05:07:04.821Z,1023.4
2019-01-03T05:08:07.249Z,1023.5
2019-01-03T05:09:09.390Z,1023.5
2019-01-03T05:10:11.522Z,1023.4
2019-01-03T05:11:13.673Z,1023.5
2019-01-03T05:12:16.088Z,1023.4
2019-01-03T05:13:18.205Z,1023.5
2019-01-03T05:14:20.353Z,1023.4
2019-01-03T05:15:22.796Z,1023.4
2019-01-03T05:16:24.940Z,1023.4
2019-01-03T05:17:27.067Z,1023.4
2019-01-03T05:18:29.260Z,1023.4
2019-01-03T05:19:33.110Z,1023.4
2019-01-03T05:20:35.279Z,1023.3
2019-01-03T05:21:37.750Z,1023.3
2019-01-03T05:22:40.171Z,1023.3
2019-01-03T05:23:42.303Z,1023.3
2019-01-03T05:24:44.439Z,1023.3
2019-01-03T05:25:46.575Z,1023.3
2019-01-03T05:26:48.719Z,1023.3
2019-01-03T05:27:50.867Z,1023.3
2019-01-03T05:28:52.995Z,1023.2
2019-01-03T05:29:55.133Z,1023.2
2019-01-03T05:30:57.280Z,1023.2
2019-01-03T05:31:59.409Z,1023.2
2019-01-03T05:33:01.561Z,1023.3
2019-01-03T05:34:03.684Z,1023.3
2019-01-03T05:35:05.822Z,1023.3
2019-01-03T05:36:07.978Z,1023.3
2019-01-03T05:37:10.503Z,1023.3
2019-01-03T05:38:12.661Z,1023.3
2019-01-03T05:39:15.086Z,1023.3
2019-01-03T05:40:17.261Z,1023.3
2019-01-03T05:41:19.679Z,1023.3
2019-01-03T05:42:21.829Z,1023.4
2019-01-03T05:43:23.956Z,1023.3
2019-01-03T05:44:26.370Z,1023.3
2019-01-03T05:45:28.798Z,1023.4
2019-01-03T05:46:30.980Z,1023.3
2019-01-03T05:47:33.405Z,1023.3
2019-01-03T05:48:35.820Z,1023.3
2019-01-03T05:49:37.965Z,1023.3
2019-01-03T05:50:40.110Z,1023.3
2019-01-03T05:51:42.240Z,1023.3
2019-01-03T05:52:44.368Z,1023.4
2019-01-03T05:53:46.476Z,1023.3
2019-01-03T05:54:48.996Z,1023.4
2019-01-03T05:55:51.134Z,1023.4
2019-01-03T05:56:53.289Z,1023.4
2019-01-03T05:57:55.428Z,1023.4
2019-01-03T05:58:57.559Z,1023.5
2019-01-03T05:59:59.975Z,1023.4
2019-01-03T06:01:02.210Z,1023.5
2019-01-03T06:02:04.628Z,1023.4
2019-01-03T06:03:06.822Z,1023.4
2019-01-03T06:04:09.242Z,1023.5
2019-01-03T06:05:11.372Z,1023.4
2019-01-03T06:06:13.777Z,1023.4
2019-01-03T06:07:15.915Z,1023.5
2019-01-03T06:08:18.034Z,1023.5
2019-01-03T06:09:20.147Z,1023.5
2019-01-03T06:10:22.259Z,1023.5
2019-01-03T06:11:24.393Z,1023.5
2019-01-03T06:12:27.179Z,1023.6
2019-01-03T06:13:29.624Z,1023.6
2019-01-03T06:14:32.069Z,1023.6
2019-01-03T06:15:34.517Z,1023.6
2019-01-03T06:16:36.649Z,1023.6
2019-01-03T06:17:38.794Z,1023.6
2019-01-03T06:18:41.193Z,1023.5
2019-01-03T06:19:43.330Z,1023.5
2019-01-03T06:20:45.756Z,1023.6
2019-01-03T06:21:47.889Z,1023.5
2019-01-03T06:22:50.321Z,1023.6
2019-01-03T06:23:52.448Z,1023.6
2019-01-03T06:24:54.583Z,1023.6
2019-01-03T06:25:56.712Z,1023.5
2019-01-03T06:26:59.603Z,1023.6
2019-01-03T06:28:01.755Z,1023.6
2019-01-03T06:29:03.892Z,1023.6
2019-01-03T06:30:06.025Z,1023.6
2019-01-03T06:31:08.158Z,1023.7
2019-01-03T06:32:10.278Z,1023.6
2019-01-03T06:33:12.407Z,1023.6
2019-01-03T06:34:14.811Z,1023.6
2019-01-03T06:35:16.954Z,1023.7
2019-01-03T06:36:19.691Z,1023.6
2019-01-03T06:37:21.839Z,1023.6
2019-01-03T06:38:23.983Z,1023.7
2019-01-03T06:39:26.220Z,1023.7
2019-01-03T06:40:28.374Z,1023.7
2019-01-03T06:41:30.547Z,1023.7
2019-01-03T06:42:33.066Z,1023.8
2019-01-03T06:43:35.223Z,1023.7
2019-01-03T06:44:37.373Z,1023.8
2019-01-03T06:45:39.496Z,1023.8
2019-01-03T06:46:41.635Z,1023.7
2019-01-03T06:47:43.771Z,1023.7
2019-01-03T06:48:45.901Z,1023.7
2019-01-03T06:49:48.011Z,1023.7
2019-01-03T06:50:50.155Z,1023.8
2019-01-03T06:51:52.267Z,1023.8
2019-01-03T06:52:54.390Z,1023.8
2019-01-03T06:53:56.519Z,1023.8
2019-01-03T06:54:59.218Z,1023.8
2019-01-03T06:56:01.403Z,1023.8
2019-01-03T06:57:03.530Z,1023.8
2019-01-03T06:58:05.657Z,1023.8
2019-01-03T06:59:07.809Z,1023.8
2019-01-03T07:00:09.952Z,1023.9
2019-01-03T07:01:12.083Z,1023.8
2019-01-03T07:02:14.499Z,1023.8
2019-01-03T07:03:16.645Z,1023.9
2019-01-03T07:04:18.776Z,1023.9
2019-01-03T07:05:20.924Z,1023.9
2019-01-03T07:06:23.032Z,1023.9
2019-01-03T07:07:25.172Z,1024
2019-01-03T07:08:27.343Z,1024
2019-01-03T07:09:29.451Z,1023.9
2019-01-03T07:10:31.595Z,1024
2019-01-03T07:11:33.729Z,1024
2019-01-03T07:12:35.853Z,1024
2019-01-03T07:13:37.955Z,1024.1
2019-01-03T07:14:40.064Z,1024.1
2019-01-03T07:15:42.191Z,1024.1
2019-01-03T07:16:44.307Z,1024.2
2019-01-03T07:17:46.441Z,1024.2
2019-01-03T07:18:48.560Z,1024.2
2019-01-03T07:19:50.693Z,1024.2
2019-01-03T07:20:52.836Z,1024.2
2019-01-03T07:21:54.964Z,1024.3
2019-01-03T07:22:57.338Z,1024.3
2019-01-03T07:23:59.464Z,1024.2
2019-01-03T07:25:01.588Z,1024.3
2019-01-03T07:26:03.699Z,1024.2
2019-01-03T07:27:05.834Z,1024.2
2019-01-03T07:28:07.938Z,1024.2
2019-01-03T07:29:10.040Z,1024.3
2019-01-03T07:30:12.176Z,1024.2
2019-01-03T07:31:14.314Z,1024.2
2019-01-03T07:32:16.423Z,1024.2
2019-01-03T07:33:18.858Z,1024.3
2019-01-03T07:34:21.277Z,1024.3
2019-01-03T07:35:23.416Z,1024.3
2019-01-03T07:36:25.567Z,1024.3
2019-01-03T07:37:27.698Z,1024.4
2019-01-03T07:38:29.835Z,1024.4
2019-01-03T07:39:31.991Z,1024.4
2019-01-03T07:40:34.124Z,1024.4
2019-01-03T07:41:36.252Z,1024.4
2019-01-03T07:42:38.389Z,1024.4
2019-01-03T07:43:40.538Z,1024.4
2019-01-03T07:44:42.950Z,1024.4
2019-01-03T07:45:45.077Z,1024.4
2019-01-03T07:46:47.200Z,1024.4
2019-01-03T07:47:49.303Z,1024.4
2019-01-03T07:48:51.421Z,1024.4
2019-01-03T07:49:53.562Z,1024.4
2019-01-03T07:50:55.683Z,1024.4
2019-01-03T07:51:57.800Z,1024.4
2019-01-03T07:52:59.919Z,1024.4
2019-01-03T07:54:02.046Z,1024.3
2019-01-03T07:55:04.182Z,1024.3
2019-01-03T07:56:06.379Z,1024.3
2019-01-03T07:57:08.551Z,1024.3
2019-01-03T07:58:10.652Z,1024.3
2019-01-03T07:59:13.045Z,1024.4
2019-01-03T08:00:15.168Z,1024.3
2019-01-03T08:01:17.292Z,1024.3
2019-01-03T08:02:19.678Z,1024.3
2019-01-03T08:03:21.818Z,1024.3
2019-01-03T08:04:23.938Z,1024.4
2019-01-03T08:05:26.070Z,1024.3
2019-01-03T08:06:28.257Z,1024.4
2019-01-03T08:07:30.387Z,1024.3
2019-01-03T08:08:32.524Z,1024.4
2019-01-03T08:09:34.661Z,1024.4
2019-01-03T08:10:36.798Z,1024.4
2019-01-03T08:11:38.919Z,1024.4
2019-01-03T08:12:41.023Z,1024.4
2019-01-03T08:13:44.578Z,1024.4
2019-01-03T08:14:48.025Z,1024.4
2019-01-03T08:15:50.176Z,1024.3
2019-01-03T08:16:52.304Z,1024.3
2019-01-03T08:17:54.559Z,1024.4
2019-01-03T08:18:56.799Z,1024.4
2019-01-03T08:19:58.906Z,1024.4
2019-01-03T08:21:01.075Z,1024.4
2019-01-03T08:22:03.221Z,1024.5
2019-01-03T08:23:05.730Z,1024.4
2019-01-03T08:24:07.862Z,1024.5
2019-01-03T08:25:10.001Z,1024.4
2019-01-03T08:26:12.182Z,1024.5
2019-01-03T08:27:14.313Z,1024.5
2019-01-03T08:28:16.444Z,1024.5
2019-01-03T08:29:18.587Z,1024.5
2019-01-03T08:30:20.717Z,1024.4
2019-01-03T08:31:23.122Z,1024.4
2019-01-03T08:32:25.250Z,1024.4
2019-01-03T08:33:27.379Z,1024.4
2019-01-03T08:34:29.553Z,1024.4
2019-01-03T08:35:31.677Z,1024.5
2019-01-03T08:36:34.216Z,1024.5
2019-01-03T08:37:36.362Z,1024.5
2019-01-03T08:38:38.862Z,1024.5
2019-01-03T08:39:42.896Z,1024.5
2019-01-03T08:42:25.441Z,1024.5
2019-01-03T08:43:35.925Z,1024.6
2019-01-03T08:44:47.193Z,1024.5
2019-01-03T08:45:52.925Z,1024.5
2019-01-03T08:47:07.455Z,1024.5
2019-01-03T08:48:13.481Z,1024.6
2019-01-03T08:49:15.606Z,1024.6
2019-01-03T08:50:17.732Z,1024.6
2019-01-03T08:51:19.874Z,1024.6
2019-01-03T08:52:22.002Z,1024.5
2019-01-03T08:53:27.422Z,1024.5
2019-01-03T08:54:36.878Z,1024.5
2019-01-03T08:55:44.971Z,1024.6
2019-01-03T08:56:55.214Z,1024.6
2019-01-03T08:58:03.663Z,1024.6
2019-01-03T08:59:20.633Z,1024.6
2019-01-03T09:00:35.679Z,1024.6
2019-01-03T09:01:37.807Z,1024.7
2019-01-03T09:02:39.951Z,1024.6
2019-01-03T09:03:42.083Z,1024.6
2019-01-03T09:04:44.237Z,1024.6
2019-01-03T09:05:46.358Z,1024.6
2019-01-03T09:06:49.247Z,1024.6
2019-01-03T09:07:51.660Z,1024.6
2019-01-03T09:08:53.806Z,1024.6
2019-01-03T09:09:55.941Z,1024.7
2019-01-03T09:10:58.369Z,1024.7
2019-01-03T09:12:00.511Z,1024.7
2019-01-03T09:13:02.661Z,1024.7
2019-01-03T09:14:04.847Z,1024.7
2019-01-03T09:15:07.005Z,1024.6
2019-01-03T09:16:09.439Z,1024.7
2019-01-03T09:17:11.875Z,1024.7
2019-01-03T09:18:14.074Z,1024.7
2019-01-03T09:19:17.001Z,1024.7
2019-01-03T09:20:19.728Z,1024.7
2019-01-03T09:21:22.155Z,1024.7
2019-01-03T09:22:24.305Z,1024.7
2019-01-03T09:23:26.470Z,1024.7
2019-01-03T09:24:28.608Z,1024.7
2019-01-03T09:25:30.813Z,1024.7
2019-01-03T09:26:33.256Z,1024.8
2019-01-03T09:27:35.400Z,1024.8
2019-01-03T09:28:37.533Z,1024.8
2019-01-03T09:29:39.668Z,1024.8
2019-01-03T09:30:41.778Z,1024.8
2019-01-03T09:31:44.199Z,1024.8
2019-01-03T09:32:46.636Z,1024.8
2019-01-03T09:33:48.804Z,1024.8
2019-01-03T09:34:50.966Z,1024.8
2019-01-03T09:35:53.109Z,1024.7
2019-01-03T09:36:55.241Z,1024.8
2019-01-03T09:37:57.395Z,1024.8
2019-01-03T09:38:59.529Z,1024.8
2019-01-03T09:40:01.964Z,1024.8
2019-01-03T09:41:04.116Z,1024.8
2019-01-03T09:42:06.543Z,1024.8
2019-01-03T09:43:08.708Z,1024.8
2019-01-03T09:44:10.878Z,1024.8
2019-01-03T09:45:13.016Z,1024.8
2019-01-03T09:46:15.541Z,1024.8
2019-01-03T09:47:18.013Z,1024.8
2019-01-03T09:48:20.127Z,1024.8
2019-01-03T09:49:22.541Z,1024.7
2019-01-03T09:50:24.716Z,1024.7
2019-01-03T09:51:28.080Z,1024.6
2019-01-03T09:52:30.291Z,1024.6
2019-01-03T09:53:32.489Z,1024.6
2019-01-03T09:54:34.637Z,1024.7
2019-01-03T09:55:37.169Z,1024.7
2019-01-03T09:56:39.325Z,1024.7
2019-01-03T09:57:41.471Z,1024.7
2019-01-03T09:58:43.615Z,1024.8
2019-01-03T09:59:45.748Z,1024.7
2019-01-03T10:00:48.186Z,1024.7
2019-01-03T10:01:50.624Z,1024.6
2019-01-03T10:02:52.791Z,1024.5
2019-01-03T10:03:54.955Z,1024.5
2019-01-03T10:04:57.107Z,1024.5
2019-01-03T10:05:59.278Z,1024.6
2019-01-03T10:07:01.449Z,1024.5
2019-01-03T10:08:03.576Z,1024.6
2019-01-03T10:09:06.105Z,1024.7
2019-01-03T10:10:08.258Z,1024.7
2019-01-03T10:11:10.398Z,1024.6
2019-01-03T10:12:12.841Z,1024.5
2019-01-03T10:13:15.022Z,1024.4
2019-01-03T10:14:17.199Z,1024.5
2019-01-03T10:15:19.348Z,1024.5
2019-01-03T10:16:21.487Z,1024.5
2019-01-03T10:17:23.620Z,1024.5
2019-01-03T10:18:26.064Z,1024.5
2019-01-03T10:19:28.490Z,1024.5
2019-01-03T10:20:30.917Z,1024.5
2019-01-03T10:21:33.087Z,1024.4
2019-01-03T10:22:35.258Z,1024.5
2019-01-03T10:23:37.419Z,1024.5
2019-01-03T10:24:39.585Z,1024.5
2019-01-03T10:25:42.141Z,1024.6
2019-01-03T10:26:44.323Z,1024.4
2019-01-03T10:27:47.560Z,1024.5
2019-01-03T10:28:49.773Z,1024.5
2019-01-03T10:29:51.935Z,1024.5
2019-01-03T10:30:54.095Z,1024.5
2019-01-03T10:31:56.262Z,1024.6
2019-01-03T10:32:58.518Z,1024.5
2019-01-03T10:34:00.691Z,1024.6
2019-01-03T10:35:02.820Z,1024.6
2019-01-03T10:36:04.953Z,1024.5
2019-01-03T10:37:07.091Z,1024.6
2019-01-03T10:38:09.530Z,1024.6
2019-01-03T10:39:11.686Z,1024.6
2019-01-03T10:40:13.873Z,1024.6
2019-01-03T10:41:16.030Z,1024.6
2019-01-03T10:42:19.404Z,1024.5
2019-01-03T10:43:21.672Z,1024.6
2019-01-03T10:44:23.902Z,1024.6
2019-01-03T10:45:26.077Z,1024.6
2019-01-03T10:46:28.514Z,1024.5
2019-01-03T10:47:30.650Z,1024.5
2019-01-03T10:48:32.805Z,1024.6
2019-01-03T10:49:34.971Z,1024.6
2019-01-03T10:50:37.171Z,1024.6
2019-01-03T10:51:39.340Z,1024.5
2019-01-03T10:52:41.532Z,1024.5
2019-01-03T10:53:43.702Z,1024.6
2019-01-03T10:54:45.838Z,1024.5
2019-01-03T10:55:48.007Z,1024.5
2019-01-03T10:56:50.177Z,1024.6
2019-01-03T10:57:52.332Z,1024.5
2019-01-03T10:58:54.478Z,1024.5
2019-01-03T10:59:56.624Z,1024.5
2019-01-03T11:00:58.833Z,1024.5
2019-01-03T11:02:01.083Z,1024.5
2019-01-03T11:03:03.260Z,1024.6
2019-01-03T11:04:05.914Z,1024.5
2019-01-03T11:05:08.065Z,1024.5
2019-01-03T11:06:10.203Z,1024.5
2019-01-03T11:07:12.353Z,1024.5
2019-01-03T11:08:14.498Z,1024.4
2019-01-03T11:09:16.918Z,1024.5
2019-01-03T11:10:19.088Z,1024.4
2019-01-03T11:11:21.297Z,1024.4
2019-01-03T11:12:23.446Z,1024.4
2019-01-03T11:13:25.623Z,1024.4
2019-01-03T11:14:27.760Z,1024.4
2019-01-03T11:15:29.914Z,1024.4
2019-01-03T11:16:32.073Z,1024.4
2019-01-03T11:17:34.236Z,1024.4
2019-01-03T11:18:36.431Z,1024.4
2019-01-03T11:19:38.849Z,1024.4
2019-01-03T11:20:41.075Z,1024.4
2019-01-03T11:21:43.259Z,1024.3
2019-01-03T11:22:45.420Z,1024.4
2019-01-03T11:23:47.581Z,1024.4
2019-01-03T11:24:49.712Z,1024.4
2019-01-03T11:25:52.238Z,1024.4
2019-01-03T11:26:54.385Z,1024.4
2019-01-03T11:27:56.523Z,1024.4
2019-01-03T11:28:58.803Z,1024.4
2019-01-03T11:30:01.001Z,1024.4
2019-01-03T11:31:03.547Z,1024.4
2019-01-03T11:32:05.727Z,1024.4
2019-01-03T11:33:07.875Z,1024.4
2019-01-03T11:34:10.034Z,1024.5
2019-01-03T11:35:12.203Z,1024.4
2019-01-03T11:36:14.365Z,1024.4
2019-01-03T11:37:16.633Z,1024.5
2019-01-03T11:38:18.779Z,1024.4
2019-01-03T11:39:22.020Z,1024.5
2019-01-03T11:40:24.499Z,1024.4
2019-01-03T11:41:26.744Z,1024.4
2019-01-03T11:42:28.994Z,1024.4
2019-01-03T11:43:31.555Z,1024.5
2019-01-03T11:44:34.584Z,1024.4
2019-01-03T11:45:37.287Z,1024.4
2019-01-03T11:46:39.771Z,1024.4
2019-01-03T11:47:42.419Z,1024.3
2019-01-03T11:48:45.128Z,1024.4
2019-01-03T11:49:48.261Z,1024.4
2019-01-03T11:50:50.786Z,1024.3
2019-01-03T11:51:53.989Z,1024.3
2019-01-03T11:52:56.246Z,1024.3
2019-01-03T11:53:59.485Z,1024.3
2019-01-03T11:55:02.523Z,1024.4
2019-01-03T11:56:05.229Z,1024.4
2019-01-03T11:57:08.723Z,1024.3
2019-01-03T11:58:12.336Z,1024.3
2019-01-03T11:59:14.801Z,1024.4
2019-01-03T12:00:18.446Z,1024.4
2019-01-03T12:01:21.801Z,1024.3
2019-01-03T12:02:26.284Z,1024.3
2019-01-03T12:03:29.653Z,1024.3
2019-01-03T12:04:31.888Z,1024.4
2019-01-03T12:05:34.178Z,1024.4
2019-01-03T12:06:36.351Z,1024.4
2019-01-03T12:07:38.675Z,1024.4
2019-01-03T12:08:40.871Z,1024.4
2019-01-03T12:09:43.499Z,1024.4
2019-01-03T12:10:45.995Z,1024.4
2019-01-03T12:11:48.189Z,1024.3
2019-01-03T12:12:50.398Z,1024.3
2019-01-03T12:13:53.249Z,1024.4
2019-01-03T12:14:56.424Z,1024.3
2019-01-03T12:15:58.600Z,1024.3
2019-01-03T12:17:00.841Z,1024.2
2019-01-03T12:18:03.032Z,1024.3
2019-01-03T12:19:05.185Z,1024.2
2019-01-03T12:20:07.625Z,1024.2
2019-01-03T12:21:10.804Z,1024.3
2019-01-03T12:22:12.978Z,1024.3
2019-01-03T12:23:15.136Z,1024.3
2019-01-03T12:24:17.298Z,1024.3
2019-01-03T12:25:19.516Z,1024.3
2019-01-03T12:26:21.695Z,1024.3
2019-01-03T12:27:23.910Z,1024.3
2019-01-03T12:28:26.097Z,1024.3
2019-01-03T12:29:28.297Z,1024.3
2019-01-03T12:30:30.500Z,1024.3
2019-01-03T12:31:32.933Z,1024.3
2019-01-03T12:32:35.429Z,1024.3
2019-01-03T12:33:37.594Z,1024.3
2019-01-03T12:34:40.237Z,1024.3
2019-01-03T12:35:42.411Z,1024.3
2019-01-03T12:36:44.616Z,1024.3
2019-01-03T12:37:46.782Z,1024.3
2019-01-03T12:38:49.890Z,1024.3
2019-01-03T12:39:52.043Z,1024.2
2019-01-03T12:40:54.505Z,1024.3
2019-01-03T12:41:56.679Z,1024.2
2019-01-03T12:42:58.844Z,1024.3
2019-01-03T12:44:01.258Z,1024.2
2019-01-03T12:45:03.419Z,1024.3
2019-01-03T12:46:05.590Z,1024.2
2019-01-03T12:47:07.748Z,1024.2
2019-01-03T12:48:09.904Z,1024.2
2019-01-03T12:49:12.052Z,1024.2
2019-01-03T12:50:14.199Z,1024.2
2019-01-03T12:51:16.318Z,1024.2
2019-01-03T12:52:18.547Z,1024.2
2019-01-03T12:53:20.722Z,1024.2
2019-01-03T12:54:22.897Z,1024.2
2019-01-03T12:55:25.047Z,1024.2
2019-01-03T12:56:27.474Z,1024.2
2019-01-03T12:57:29.625Z,1024.2
2019-01-03T12:58:31.785Z,1024.2
2019-01-03T12:59:33.937Z,1024.2